createdAt,value
2023-05-13T00:00:46.719Z,13.76
2023-05-13T00:03:16.761Z,13.73
2023-05-13T00:05:48.818Z,13.75
2023-05-13T00:08:31.855Z,13.72
2023-05-13T00:11:07.929Z,13.71
2023-05-13T00:13:42.307Z,13.70
2023-05-13T00:16:18.473Z,13.66
2023-05-13T00:18:51.560Z,13.66
2023-05-13T00:21:24.584Z,13.60
2023-05-13T00:23:57.398Z,13.62
2023-05-13T00:26:32.513Z,13.68
2023-05-13T00:29:05.006Z,13.74
2023-05-13T00:31:37.407Z,13.77
2023-05-13T00:34:07.458Z,13.79
2023-05-13T00:36:44.953Z,13.82
2023-05-13T00:39:26.738Z,13.79
2023-05-13T00:41:56.628Z,13.76
2023-05-13T00:44:32.384Z,13.74
2023-05-13T00:47:16.172Z,13.76
2023-05-13T00:49:46.260Z,13.81
2023-05-13T00:52:17.379Z,13.78
2023-05-13T00:54:47.244Z,13.82
2023-05-13T00:57:19.394Z,13.88
2023-05-13T00:59:57.546Z,13.84
2023-05-13T01:02:40.984Z,13.83
2023-05-13T01:05:23.477Z,13.71
2023-05-13T01:08:14.968Z,13.72
2023-05-13T01:10:50.124Z,13.67
2023-05-13T01:13:24.394Z,13.73
2023-05-13T01:16:04.720Z,13.73
2023-05-13T01:18:40.170Z,13.59
2023-05-13T01:21:11.848Z,13.60
2023-05-13T01:23:45.848Z,13.63
2023-05-13T01:26:16.707Z,13.65
2023-05-13T01:28:46.578Z,13.69
2023-05-13T01:31:18.166Z,13.69
2023-05-13T01:33:52.434Z,13.70
2023-05-13T01:36:22.847Z,13.74
2023-05-13T01:38:59.584Z,13.77
2023-05-13T01:41:33.982Z,13.74
2023-05-13T01:44:04.297Z,13.68
2023-05-13T01:46:34.755Z,13.67
2023-05-13T01:49:09.265Z,13.61
2023-05-13T01:51:41.785Z,13.64
2023-05-13T01:54:14.361Z,13.63
2023-05-13T01:56:45.405Z,13.63
2023-05-13T01:59:16.551Z,13.62
2023-05-13T02:01:46.501Z,13.63
2023-05-13T02:04:19.425Z,13.66
2023-05-13T02:06:54.875Z,13.63
2023-05-13T02:09:27.360Z,13.65
2023-05-13T02:11:58.580Z,13.66
2023-05-13T02:14:28.422Z,13.66
2023-05-13T02:17:01.769Z,13.65
2023-05-13T02:45:41.093Z,13.30
2023-05-13T02:48:35.397Z,13.32
2023-05-13T02:51:17.806Z,13.38
2023-05-13T02:54:08.035Z,13.38
2023-05-13T02:56:40.463Z,13.32
2023-05-13T02:59:10.508Z,13.27
2023-05-13T03:02:03.759Z,13.29
2023-05-13T03:04:43.788Z,13.29
2023-05-13T03:07:17.373Z,13.26
2023-05-13T03:09:48.648Z,13.17
2023-05-13T03:12:18.604Z,13.06
2023-05-13T03:14:56.043Z,13.02
2023-05-13T03:17:26.162Z,13.05
2023-05-13T03:20:01.278Z,13.10
2023-05-13T03:22:31.711Z,13.12
2023-05-13T03:25:02.792Z,13.19
2023-05-13T03:27:35.027Z,13.14
2023-05-13T03:30:05.181Z,13.12
2023-05-13T03:32:48.455Z,13.13
2023-05-13T03:35:21.070Z,13.10
2023-05-13T03:41:41.048Z,13.07
2023-05-13T03:44:14.404Z,13.04
2023-05-13T03:46:48.859Z,13.05
2023-05-13T03:49:19.259Z,12.99
2023-05-13T03:51:51.778Z,13.02
2023-05-13T03:54:21.604Z,13.07
2023-05-13T03:56:51.450Z,13.10
2023-05-13T03:59:24.574Z,13.12
2023-05-13T04:01:55.980Z,13.17
2023-05-13T04:04:25.888Z,13.17
2023-05-13T04:09:35.486Z,13.19
2023-05-13T04:12:10.140Z,13.18
2023-05-13T04:22:24.068Z,13.09
2023-05-13T04:32:03.440Z,13.25
2023-05-13T04:34:35.053Z,13.35
2023-05-13T05:13:36.743Z,15.56
2023-05-13T05:16:09.245Z,15.52
2023-05-13T05:18:41.572Z,15.73
2023-05-13T05:21:11.558Z,15.76
2023-05-13T05:23:41.862Z,15.85
2023-05-13T05:26:12.570Z,15.98
2023-05-13T05:28:46.366Z,16.18
2023-05-13T05:31:16.689Z,16.32
2023-05-13T05:33:47.246Z,16.50
2023-05-13T05:36:17.195Z,16.59
2023-05-13T05:38:47.592Z,16.59
2023-05-13T05:41:17.561Z,16.69
2023-05-13T05:43:51.488Z,16.62
2023-05-13T05:46:23.041Z,16.58
2023-05-13T05:48:53.138Z,16.64
2023-05-13T05:51:22.914Z,16.69
2023-05-13T05:53:54.395Z,16.73
2023-05-13T05:56:24.268Z,16.78
2023-05-13T05:58:56.806Z,16.76
2023-05-13T06:01:26.733Z,16.64
2023-05-13T06:03:57.376Z,16.49
2023-05-13T06:06:27.403Z,16.62
2023-05-13T06:08:57.272Z,16.65
2023-05-13T06:11:33.638Z,16.75
2023-05-13T06:14:06.123Z,16.78
2023-05-13T06:16:35.970Z,17.00
2023-05-13T06:19:06.194Z,17.04
2023-05-13T06:21:36.080Z,16.85
2023-05-13T06:24:05.934Z,16.76
2023-05-13T06:26:35.878Z,16.85
2023-05-13T06:29:08.335Z,16.91
2023-05-13T06:31:38.268Z,17.01
2023-05-13T06:34:08.244Z,17.14
2023-05-13T06:36:38.084Z,17.17
2023-05-13T06:39:07.929Z,17.25
2023-05-13T06:41:38.708Z,17.12
2023-05-13T06:44:11.276Z,17.16
2023-05-13T06:46:42.659Z,17.28
2023-05-13T06:49:12.488Z,17.28
2023-05-13T06:51:42.638Z,17.45
2023-05-13T06:54:12.432Z,17.53
2023-05-13T06:56:42.418Z,17.46
2023-05-13T06:59:15.450Z,17.52
2023-05-13T07:01:46.078Z,17.42
2023-05-13T07:04:15.999Z,17.38
2023-05-13T07:06:45.833Z,17.54
2023-05-13T07:09:15.762Z,17.65
2023-05-13T07:11:48.434Z,17.70
2023-05-13T07:14:21.643Z,17.71
2023-05-13T07:16:51.492Z,17.84
2023-05-13T07:19:21.466Z,17.98
2023-05-13T07:21:51.403Z,18.09
2023-05-13T07:24:21.285Z,18.28
2023-05-13T07:26:51.107Z,18.37
2023-05-13T07:29:24.131Z,18.39
2023-05-13T07:31:55.142Z,18.26
2023-05-13T07:34:25.048Z,18.25
2023-05-13T07:36:54.865Z,18.32
2023-05-13T07:39:24.703Z,18.44
2023-05-13T07:41:54.549Z,18.49
2023-05-13T07:44:26.992Z,18.60
2023-05-13T07:46:56.790Z,18.62
2023-05-13T07:49:26.634Z,18.50
2023-05-13T07:51:57.062Z,18.59
2023-05-13T07:54:33.139Z,18.71
2023-05-13T07:57:03.053Z,18.91
2023-05-13T07:59:35.591Z,19.00
2023-05-13T08:02:05.456Z,19.13
2023-05-13T08:04:35.452Z,18.97
2023-05-13T08:07:05.403Z,18.82
2023-05-13T08:09:35.219Z,18.88
2023-05-13T08:12:09.590Z,18.85
2023-05-13T08:14:42.069Z,18.83
2023-05-13T08:17:12.348Z,18.70
2023-05-13T08:19:42.208Z,18.68
2023-05-13T08:22:12.004Z,18.88
2023-05-13T08:24:43.423Z,19.16
2023-05-13T08:27:13.267Z,19.26
2023-05-13T08:29:45.696Z,19.37
2023-05-13T08:32:15.604Z,19.36
2023-05-13T08:34:45.492Z,19.35
2023-05-13T08:37:15.451Z,19.32
2023-05-13T08:39:45.311Z,19.30
2023-05-13T08:42:19.465Z,19.42
2023-05-13T08:44:53.405Z,19.58
2023-05-13T08:47:36.761Z,19.66
2023-05-13T08:50:07.710Z,19.79
2023-05-13T08:52:37.665Z,20.05
2023-05-13T08:55:08.965Z,20.15
2023-05-13T08:57:39.430Z,20.26
2023-05-13T09:00:16.182Z,20.17
2023-05-13T09:02:46.105Z,20.07
2023-05-13T09:05:16.199Z,19.83
2023-05-13T09:07:46.563Z,19.77
2023-05-13T09:10:16.411Z,19.64
2023-05-13T09:12:47.869Z,19.59
2023-05-13T09:15:22.184Z,19.64
2023-05-13T09:17:55.177Z,19.69
2023-05-13T09:20:26.903Z,19.79
2023-05-13T09:23:01.299Z,19.91
2023-05-13T09:25:31.963Z,19.77
2023-05-13T09:28:03.689Z,19.50
2023-05-13T09:30:39.334Z,19.31
2023-05-13T09:33:13.909Z,19.26
2023-05-13T09:35:45.897Z,19.23
2023-05-13T09:38:17.497Z,19.29
2023-05-13T09:40:54.781Z,19.35
2023-05-13T09:43:25.919Z,19.53
2023-05-13T09:46:00.575Z,19.42
2023-05-13T09:48:31.838Z,19.38
2023-05-13T09:51:02.084Z,19.29
2023-05-13T09:53:32.358Z,19.22
2023-05-13T09:56:02.417Z,19.17
2023-05-13T09:58:32.638Z,19.16
2023-05-13T10:01:05.897Z,19.09
2023-05-13T10:03:36.004Z,19.24
2023-05-13T10:06:07.413Z,19.27
2023-05-13T10:08:38.297Z,19.27
2023-05-13T10:11:09.562Z,19.32
2023-05-13T10:13:42.972Z,19.18
2023-05-13T10:16:15.614Z,19.19
2023-05-13T10:18:46.338Z,19.24
2023-05-13T10:21:16.964Z,19.21
2023-05-13T10:23:48.515Z,19.27
2023-05-13T10:26:18.768Z,19.30
2023-05-13T10:28:48.976Z,19.30
2023-05-13T10:31:21.479Z,19.30
2023-05-13T10:33:51.497Z,19.30
2023-05-13T10:36:40.821Z,19.18
2023-05-13T10:39:38.718Z,19.29
2023-05-13T10:42:40.141Z,19.48
2023-05-13T10:45:11.571Z,19.44
2023-05-13T10:47:44.109Z,19.52
2023-05-13T10:50:31.879Z,19.53
2023-05-13T10:53:03.641Z,19.67
2023-05-13T10:55:33.791Z,19.74
2023-05-13T10:58:07.961Z,19.68
2023-05-13T11:00:39.267Z,19.69
2023-05-13T11:03:31.892Z,19.49
2023-05-13T11:06:06.155Z,19.46
2023-05-13T11:08:43.963Z,19.14
2023-05-13T11:11:29.574Z,19.06
2023-05-13T11:14:08.866Z,19.19
2023-05-13T11:16:39.278Z,19.08
2023-05-13T11:19:23.441Z,19.05
2023-05-13T11:21:55.691Z,19.06
2023-05-13T11:24:26.805Z,19.03
2023-05-13T11:26:59.293Z,19.09
2023-05-13T11:29:34.518Z,19.13
2023-05-13T11:32:06.501Z,19.11
2023-05-13T11:34:41.445Z,19.16
2023-05-13T11:37:13.228Z,19.26
2023-05-13T11:39:44.181Z,19.34
2023-05-13T11:42:14.710Z,19.31
2023-05-13T11:44:49.658Z,19.30
2023-05-13T11:47:29.006Z,19.33
2023-05-13T11:50:01.502Z,19.37
2023-05-13T11:52:31.356Z,19.30
2023-05-13T11:55:01.200Z,19.30
2023-05-13T11:57:32.992Z,19.41
2023-05-13T12:00:05.049Z,19.44
2023-05-13T12:02:40.980Z,19.51
2023-05-13T12:05:14.962Z,19.50
2023-05-13T12:07:44.829Z,19.52
2023-05-13T12:10:15.070Z,19.46
2023-05-13T12:12:48.814Z,19.24
2023-05-13T12:15:20.389Z,19.16
2023-05-13T12:17:51.884Z,18.79
2023-05-13T12:20:25.391Z,18.77
2023-05-13T12:22:57.762Z,18.70
2023-05-13T12:25:45.283Z,18.67
2023-05-13T12:28:19.837Z,18.69
2023-05-13T12:30:56.300Z,18.68
2023-05-13T12:33:27.531Z,18.60
2023-05-13T12:36:25.874Z,18.70
2023-05-13T12:39:00.956Z,18.70
2023-05-13T12:41:32.541Z,18.65
2023-05-13T12:44:03.804Z,18.72
2023-05-13T12:46:37.329Z,18.70
2023-05-13T12:49:08.811Z,18.65
2023-05-13T12:51:41.249Z,18.59
2023-05-13T12:54:11.081Z,18.75
2023-05-13T12:56:42.132Z,18.77
2023-05-13T12:59:14.514Z,18.64
2023-05-13T13:01:45.175Z,18.62
2023-05-13T13:04:16.974Z,18.74
2023-05-13T13:06:49.600Z,18.83
2023-05-13T13:09:19.444Z,18.89
2023-05-13T13:11:49.306Z,18.88
2023-05-13T13:14:20.880Z,18.78
2023-05-13T13:16:50.725Z,18.85
2023-05-13T13:19:20.746Z,18.96
2023-05-13T13:21:53.212Z,18.97
2023-05-13T13:24:23.026Z,18.91
2023-05-13T13:26:54.481Z,19.08
2023-05-13T13:29:24.557Z,19.17
2023-05-13T13:31:54.756Z,19.25
2023-05-13T13:34:24.636Z,19.14
2023-05-13T13:36:57.133Z,19.13
2023-05-13T13:39:30.737Z,19.22
2023-05-13T13:42:00.548Z,19.31
2023-05-13T13:44:30.342Z,19.19
2023-05-13T13:47:00.192Z,19.11
2023-05-13T13:49:30.030Z,19.15
2023-05-13T13:52:05.522Z,19.21
2023-05-13T13:54:35.462Z,19.17
2023-05-13T13:57:05.452Z,19.16
2023-05-13T13:59:35.253Z,19.17
2023-05-13T14:02:05.046Z,19.15
2023-05-13T14:04:37.202Z,19.22
2023-05-13T14:07:09.929Z,19.25
2023-05-13T14:09:39.725Z,19.21
2023-05-13T14:12:09.704Z,19.15
2023-05-13T14:14:40.366Z,19.01
2023-05-13T14:17:11.633Z,18.97
2023-05-13T14:19:42.925Z,18.90
2023-05-13T14:22:15.686Z,18.92
2023-05-13T14:24:45.584Z,18.85
2023-05-13T14:27:15.440Z,18.87
2023-05-13T14:29:45.239Z,18.74
2023-05-13T14:32:15.161Z,18.77
2023-05-13T14:34:45.107Z,18.60
2023-05-13T14:37:18.301Z,18.43
2023-05-13T14:39:49.935Z,18.43
2023-05-13T14:42:20.364Z,18.39
2023-05-13T14:44:50.153Z,18.33
2023-05-13T14:47:20.016Z,18.25
2023-05-13T14:49:49.892Z,18.31
2023-05-13T14:52:22.374Z,18.42
2023-05-13T14:54:52.623Z,18.58
2023-05-13T14:57:22.872Z,18.51
2023-05-13T14:59:52.740Z,18.43
2023-05-13T15:02:22.679Z,18.37
2023-05-13T15:04:52.682Z,18.54
2023-05-13T15:07:25.375Z,18.70
2023-05-13T15:09:55.190Z,18.69
2023-05-13T15:12:27.355Z,18.70
2023-05-13T15:14:58.582Z,18.64
2023-05-13T15:17:29.213Z,18.72
2023-05-13T15:19:59.104Z,18.59
2023-05-13T15:22:33.319Z,18.49
2023-05-13T15:25:04.809Z,18.42
2023-05-13T15:27:34.635Z,18.57
2023-05-13T15:30:04.715Z,18.27
2023-05-13T15:32:34.639Z,18.12
2023-05-13T15:35:04.574Z,18.02
2023-05-13T15:37:42.827Z,17.86
2023-05-13T15:40:13.717Z,17.67
2023-05-13T15:42:43.521Z,17.57
2023-05-13T15:45:14.185Z,17.69
2023-05-13T15:47:46.446Z,17.62
2023-05-13T15:50:16.779Z,17.62
2023-05-13T15:52:49.206Z,17.56
2023-05-13T15:55:19.178Z,17.53
2023-05-13T15:57:50.507Z,17.49
2023-05-13T16:00:21.778Z,17.63
2023-05-13T16:02:51.853Z,17.61
2023-05-13T16:05:21.857Z,17.54
2023-05-13T16:07:54.346Z,17.28
2023-05-13T16:10:24.482Z,17.22
2023-05-13T16:12:54.857Z,17.30
2023-05-13T16:15:25.230Z,17.29
2023-05-13T16:17:55.291Z,17.31
2023-05-13T16:20:25.464Z,17.32
2023-05-13T16:22:58.009Z,17.29
2023-05-13T16:25:27.816Z,17.21
2023-05-13T16:27:57.669Z,17.23
2023-05-13T16:30:27.679Z,17.23
2023-05-13T16:32:57.703Z,17.12
2023-05-13T16:35:27.599Z,17.13
2023-05-13T16:38:00.137Z,16.99
2023-05-13T16:40:30.001Z,16.90
2023-05-13T16:43:03.244Z,16.72
2023-05-13T16:45:33.816Z,16.55
2023-05-13T16:48:04.054Z,16.34
2023-05-13T16:50:34.179Z,16.24
2023-05-13T16:53:06.778Z,16.15
2023-05-13T16:55:36.676Z,15.99
2023-05-13T16:58:06.454Z,15.89
2023-05-13T17:00:36.269Z,15.83
2023-05-13T17:03:06.169Z,15.62
2023-05-13T17:05:36.696Z,15.52
2023-05-13T17:08:09.334Z,15.46
2023-05-13T17:10:39.244Z,15.22
2023-05-13T17:13:11.494Z,15.08
2023-05-13T17:15:41.407Z,14.97
2023-05-13T17:18:12.084Z,14.76
2023-05-13T17:20:42.211Z,14.72
2023-05-13T17:23:16.989Z,14.73
2023-05-13T17:25:46.956Z,14.69
2023-05-13T17:28:16.995Z,14.71
2023-05-13T17:30:47.081Z,14.77
2023-05-13T17:33:17.005Z,14.85
2023-05-13T17:35:47.038Z,14.73
2023-05-13T17:38:19.543Z,14.70
2023-05-13T17:40:49.351Z,14.66
2023-05-13T17:43:21.346Z,14.63
2023-05-13T17:45:51.199Z,14.61
2023-05-13T17:48:21.128Z,14.57
2023-05-13T17:50:51.418Z,14.53
2023-05-13T17:53:24.258Z,14.53
2023-05-13T17:56:03.176Z,14.42
2023-05-13T17:58:33.065Z,14.38
2023-05-13T18:01:03.217Z,14.47
2023-05-13T18:03:33.240Z,14.45
2023-05-13T18:06:03.120Z,14.56
2023-05-13T18:08:36.359Z,14.59
2023-05-13T18:11:06.304Z,14.50
2023-05-13T18:13:36.178Z,14.42
2023-05-13T18:16:07.199Z,14.47
2023-05-13T18:18:37.259Z,14.49
2023-05-13T18:21:07.429Z,14.50
2023-05-13T18:23:39.842Z,14.40
2023-05-13T18:26:09.636Z,14.35
2023-05-13T18:28:39.483Z,14.39
2023-05-13T18:31:09.373Z,14.42
2023-05-13T18:33:39.207Z,14.39
2023-05-13T18:36:10.405Z,14.48
2023-05-13T18:38:42.950Z,14.60
2023-05-13T18:41:12.844Z,14.59
2023-05-13T18:43:42.696Z,14.64
2023-05-13T18:46:14.290Z,14.64
2023-05-13T18:48:44.276Z,14.63
2023-05-13T18:51:14.647Z,14.57
2023-05-13T18:53:48.347Z,14.60
2023-05-13T18:56:18.225Z,14.57
2023-05-13T18:58:48.744Z,14.55
2023-05-13T19:01:18.815Z,14.55
2023-05-13T19:03:49.030Z,14.54
2023-05-13T19:06:18.936Z,14.48
2023-05-13T19:08:52.174Z,14.39
2023-05-13T19:11:22.930Z,14.33
2023-05-13T19:13:52.736Z,14.37
2023-05-13T19:16:22.639Z,14.39
2023-05-13T19:18:53.432Z,14.35
2023-05-13T19:21:23.722Z,14.37
2023-05-13T19:23:56.262Z,14.33
2023-05-13T19:26:26.239Z,14.26
2023-05-13T19:28:59.222Z,14.23
2023-05-13T19:31:29.765Z,14.28
2023-05-13T19:34:01.030Z,14.29
2023-05-13T19:36:31.354Z,14.21
2023-05-13T19:39:06.937Z,14.14
2023-05-13T19:41:38.060Z,14.13
2023-05-13T19:44:07.917Z,14.18
2023-05-13T19:46:38.179Z,14.12
2023-05-13T19:49:08.103Z,14.02
2023-05-13T19:51:38.004Z,14.04
2023-05-13T19:54:12.689Z,13.95
2023-05-13T19:56:43.464Z,13.90
2023-05-13T19:59:13.295Z,13.75
2023-05-13T20:01:43.322Z,13.66
2023-05-13T20:04:13.248Z,13.58
2023-05-13T20:06:46.852Z,13.55
2023-05-13T20:09:19.284Z,13.55
2023-05-13T20:11:49.172Z,13.50
2023-05-13T20:14:23.630Z,13.54
2023-05-13T20:16:55.812Z,13.41
2023-05-13T20:19:25.654Z,13.38
2023-05-13T20:21:55.842Z,13.38
2023-05-13T20:24:28.300Z,13.30
2023-05-13T20:26:58.477Z,13.29
2023-05-13T20:29:28.367Z,13.23
2023-05-13T20:31:58.339Z,13.10
2023-05-13T20:34:28.269Z,12.97
2023-05-13T20:36:58.151Z,12.85
2023-05-13T20:39:31.422Z,12.84
2023-05-13T20:42:01.414Z,12.75
2023-05-13T20:44:31.307Z,12.70
2023-05-13T20:47:01.177Z,12.70
2023-05-13T20:49:31.398Z,12.76
2023-05-13T20:52:08.445Z,12.78
2023-05-13T20:54:41.810Z,12.82
2023-05-13T20:57:11.597Z,12.82
2023-05-13T20:59:41.431Z,12.86
2023-05-13T21:02:14.133Z,12.91
2023-05-13T21:04:44.039Z,12.88
2023-05-13T21:07:14.206Z,12.87
2023-05-13T21:09:51.798Z,12.84
2023-05-13T21:12:33.056Z,12.71
2023-05-13T21:15:03.003Z,12.68
2023-05-13T21:17:35.457Z,12.70
2023-05-13T21:20:05.459Z,12.68
2023-05-13T21:22:35.726Z,12.69
2023-05-13T21:25:11.208Z,12.73
2023-05-13T21:27:41.194Z,12.75
2023-05-13T21:30:12.824Z,12.75
2023-05-13T21:32:45.514Z,12.70
2023-05-13T21:35:15.392Z,12.69
2023-05-13T21:37:47.357Z,12.71
2023-05-13T21:40:21.650Z,12.65
2023-05-13T21:42:52.054Z,12.71
2023-05-13T21:45:22.775Z,12.72
2023-05-13T21:47:53.028Z,12.76
2023-05-13T21:50:23.515Z,12.74
2023-05-13T21:53:01.895Z,12.73
2023-05-13T22:06:07.349Z,12.69
2023-05-13T22:08:37.294Z,12.76
2023-05-13T22:11:07.537Z,12.81
2023-05-13T22:13:38.577Z,12.81
2023-05-13T22:16:08.801Z,12.81
2023-05-13T22:18:38.969Z,12.75
2023-05-13T22:21:11.677Z,12.77
2023-05-13T22:23:41.769Z,12.78
2023-05-13T22:26:12.198Z,12.83
2023-05-13T22:28:42.119Z,12.79
2023-05-13T22:31:12.055Z,12.77
2023-05-13T22:33:42.103Z,12.80
2023-05-13T22:36:18.926Z,12.78
2023-05-13T22:38:48.761Z,12.80
2023-05-13T22:41:20.944Z,12.84
2023-05-13T22:43:50.814Z,12.79
2023-05-13T22:46:34.432Z,12.80
2023-05-13T22:49:04.401Z,12.83
2023-05-13T22:51:38.158Z,12.78
2023-05-13T22:54:08.813Z,12.78
2023-05-13T22:56:38.588Z,12.80
2023-05-13T22:59:09.995Z,12.78
2023-05-13T23:01:43.184Z,12.81
2023-05-13T23:04:16.172Z,12.87
2023-05-13T23:06:50.787Z,12.86
2023-05-13T23:09:23.524Z,12.88
2023-05-13T23:11:56.981Z,12.87
2023-05-13T23:14:29.078Z,12.91
2023-05-13T23:16:58.933Z,12.89
2023-05-13T23:19:43.730Z,12.86
2023-05-13T23:22:28.270Z,12.87
2023-05-13T23:24:58.132Z,12.81
2023-05-13T23:27:28.553Z,12.78
2023-05-13T23:29:58.394Z,12.77
2023-05-13T23:32:30.617Z,12.78
2023-05-13T23:35:00.476Z,12.81
2023-05-13T23:37:32.955Z,12.74
2023-05-13T23:40:02.749Z,12.79
2023-05-13T23:42:34.445Z,12.75
2023-05-13T23:45:04.410Z,12.73
2023-05-13T23:47:34.242Z,12.69
2023-05-13T23:50:04.077Z,12.74
2023-05-13T23:52:36.583Z,12.71
2023-05-13T23:55:06.964Z,12.72
2023-05-13T23:57:36.825Z,12.67
